Time;durP1;ratioP1;P1;durP2;ratioP2;P2;SDS_P1;SDS_P2;PMS_P1;PMS_P2;Temp;Humidity;BMP_temperature;BMP_pressure;BME280_temperature;BME280_humidity;BME280_pressure;Samples;Min_cycle;Max_cycle;Signal;HPM_P1;HPM_P2
2021/06/09 00:00:05;;;;;;;36.33;33.63;;;17.90;95.10;;;;;;5042447;28;20458;-75
2021/06/09 00:02:31;;;;;;;37.70;34.60;;;17.90;95.10;;;;;;5054455;28;20807;-75
2021/06/09 00:04:58;;;;;;;37.90;34.60;;;17.90;95.10;;;;;;5042138;28;20463;-75
2021/06/09 00:07:24;;;;;;;38.33;35.23;;;17.90;94.90;;;;;;5057950;28;20455;-75
2021/06/09 00:09:51;;;;;;;38.50;35.60;;;17.90;94.80;;;;;;5051093;28;20511;-77
2021/06/09 00:12:17;;;;;;;38.37;35.40;;;17.80;94.90;;;;;;5049456;28;20902;-75
2021/06/09 00:14:43;;;;;;;36.07;33.50;;;17.80;95.20;;;;;;5062798;28;20522;-75
2021/06/09 00:17:11;;;;;;;37.07;34.20;;;17.70;95.20;;;;;;5060688;28;20566;-75
2021/06/09 00:19:38;;;;;;;36.10;33.47;;;17.70;95.10;;;;;;5051633;28;20596;-75
2021/06/09 00:22:05;;;;;;;38.63;35.37;;;17.70;95.30;;;;;;5057968;28;20466;-75
2021/06/09 00:24:32;;;;;;;36.00;33.30;;;17.60;95.80;;;;;;5049102;28;20486;-75
2021/06/09 00:26:58;;;;;;;37.23;34.40;;;17.60;95.70;;;;;;5051656;28;20512;-75
2021/06/09 00:29:25;;;;;;;37.53;34.73;;;17.60;95.60;;;;;;5051346;28;21160;-75
2021/06/09 00:31:51;;;;;;;35.60;32.70;;;17.60;95.60;;;;;;5056033;28;20577;-75
2021/06/09 00:34:19;;;;;;;37.07;34.10;;;17.60;95.50;;;;;;5057667;28;20596;-75
2021/06/09 00:36:45;;;;;;;38.00;35.10;;;17.60;95.30;;;;;;5064005;28;20477;-75
2021/06/09 00:39:12;;;;;;;37.90;35.00;;;17.60;95.20;;;;;;5054991;28;20486;-75
2021/06/09 00:41:38;;;;;;;37.83;34.93;;;17.60;95.20;;;;;;5057150;28;21022;-75
2021/06/09 00:44:06;;;;;;;36.00;33.30;;;17.50;95.60;;;;;;5061834;28;20493;-75
2021/06/09 00:46:34;;;;;;;37.53;34.67;;;17.60;95.30;;;;;;5062025;28;20458;-75
2021/06/09 00:49:01;;;;;;;35.67;32.97;;;17.50;95.50;;;;;;5054827;28;20473;-75
2021/06/09 00:51:29;;;;;;;35.70;32.77;;;17.50;95.20;;;;;;5052385;28;20466;-75
2021/06/09 00:53:57;;;;;;;36.87;33.97;;;17.50;95.00;;;;;;5051115;28;20578;-75
2021/06/09 00:56:25;;;;;;;35.87;33.17;;;17.40;94.90;;;;;;5058128;28;20939;-75
2021/06/09 00:58:53;;;;;;;36.80;33.90;;;17.40;95.10;;;;;;5048381;28;20474;-75
2021/06/09 01:01:21;;;;;;;37.40;34.43;;;17.40;95.00;;;;;;5051753;28;20460;-75
2021/06/09 01:03:48;;;;;;;38.93;36.00;;;17.30;95.40;;;;;;5058210;28;20473;-75
2021/06/09 01:06:15;;;;;;;36.23;33.43;;;17.30;96.20;;;;;;5059767;28;20464;-75
2021/06/09 01:08:43;;;;;;;38.23;34.90;;;17.30;96.10;;;;;;5058338;28;20465;-75
2021/06/09 01:11:14;;;;;;;36.07;33.20;;;17.40;95.70;;;;;;5055862;28;20469;-75
2021/06/09 01:13:41;;;;;;;35.97;33.10;;;17.40;95.20;;;;;;5058257;28;20475;-75
2021/06/09 01:16:08;;;;;;;35.03;32.33;;;17.30;95.30;;;;;;5057293;28;20465;-75
2021/06/09 01:18:35;;;;;;;36.03;33.30;;;17.30;95.10;;;;;;5055184;28;21463;-75
2021/06/09 01:21:01;;;;;;;34.33;31.57;;;17.30;95.10;;;;;;5051225;28;20463;-75
2021/06/09 01:23:29;;;;;;;33.83;31.33;;;17.30;94.90;;;;;;5059506;28;20482;-75
2021/06/09 01:25:57;;;;;;;35.60;32.83;;;17.20;94.90;;;;;;5062115;28;20947;-75
2021/06/09 01:28:24;;;;;;;36.90;33.90;;;17.10;95.10;;;;;;5057901;28;21006;-75
2021/06/09 01:30:52;;;;;;;36.00;33.20;;;17.10;95.50;;;;;;5051511;28;20857;-75
2021/06/09 01:33:19;;;;;;;37.17;34.47;;;17.00;95.60;;;;;;5050977;28;20489;-75
2021/06/09 01:35:46;;;;;;;38.60;35.50;;;17.00;95.70;;;;;;5058354;28;20469;-75
2021/06/09 01:38:13;;;;;;;37.60;34.67;;;17.10;95.70;;;;;;5059366;28;20487;-75
2021/06/09 01:40:40;;;;;;;35.37;32.70;;;17.20;95.70;;;;;;5049410;28;20961;-75
2021/06/09 01:43:07;;;;;;;35.60;32.90;;;17.10;95.20;;;;;;5044457;28;20643;-75
2021/06/09 01:45:36;;;;;;;36.10;33.40;;;17.10;95.30;;;;;;5057242;28;20816;-75
2021/06/09 01:48:03;;;;;;;39.73;36.50;;;17.20;95.10;;;;;;5060980;28;21342;-75
2021/06/09 01:50:31;;;;;;;36.57;33.77;;;17.10;95.40;;;;;;5051892;28;20686;-75
2021/06/09 01:53:02;;;;;;;36.63;33.70;;;17.10;95.20;;;;;;5050591;28;20568;-75
2021/06/09 01:55:30;;;;;;;36.77;34.00;;;17.00;95.30;;;;;;5059831;28;20546;-75
2021/06/09 01:57:58;;;;;;;35.70;33.00;;;17.10;95.00;;;;;;5057843;28;20478;-75
2021/06/09 02:00:26;;;;;;;36.70;34.00;;;17.10;95.00;;;;;;5049281;28;21049;-75
2021/06/09 02:02:57;;;;;;;35.10;32.40;;;17.10;95.10;;;;;;5057266;28;20511;-75
2021/06/09 02:05:24;;;;;;;34.60;32.00;;;17.10;95.00;;;;;;5055318;28;20490;-75
2021/06/09 02:07:50;;;;;;;36.70;33.83;;;17.10;94.90;;;;;;5058624;28;21499;-75
2021/06/09 02:10:21;;;;;;;35.00;32.20;;;17.10;95.40;;;;;;5059497;28;20466;-75
2021/06/09 02:12:51;;;;;;;38.33;35.30;;;17.10;95.50;;;;;;5049474;28;20490;-75
2021/06/09 02:15:21;;;;;;;39.27;36.07;;;17.10;95.40;;;;;;5063044;28;20465;-75
2021/06/09 02:17:56;;;;;;;36.37;33.63;;;17.10;95.20;;;;;;5047165;28;20558;-75
2021/06/09 02:20:24;;;;;;;38.07;35.07;;;17.10;95.10;;;;;;5045853;28;20459;-75
2021/06/09 02:22:51;;;;;;;34.80;32.10;;;17.00;95.20;;;;;;5053455;28;20524;-75
2021/06/09 02:25:18;;;;;;;36.43;33.60;;;17.10;95.00;;;;;;5060042;28;20511;-75
2021/06/09 02:27:45;;;;;;;38.23;35.23;;;17.10;95.00;;;;;;5055540;28;20471;-75
2021/06/09 02:30:12;;;;;;;36.70;33.90;;;17.10;95.20;;;;;;5053654;28;20896;-75
2021/06/09 02:32:41;;;;;;;37.53;34.60;;;17.00;95.50;;;;;;5051803;28;20587;-75
2021/06/09 02:35:14;;;;;;;37.67;34.67;;;17.10;95.70;;;;;;5059216;28;21038;-75
2021/06/09 02:37:41;;;;;;;36.93;34.20;;;17.10;95.50;;;;;;5045658;28;20474;-74
2021/06/09 02:40:08;;;;;;;37.43;34.60;;;17.10;95.40;;;;;;5052954;28;20458;-75
2021/06/09 02:42:36;;;;;;;38.10;34.77;;;17.10;95.60;;;;;;5057014;28;20614;-75
2021/06/09 02:45:06;;;;;;;37.77;34.77;;;17.10;95.50;;;;;;5062338;28;20453;-75
2021/06/09 02:47:34;;;;;;;36.70;33.83;;;17.10;95.40;;;;;;5053488;28;20565;-75
2021/06/09 02:50:04;;;;;;;37.70;34.70;;;17.00;95.60;;;;;;5058486;28;21006;-75
2021/06/09 02:52:36;;;;;;;37.10;34.40;;;17.00;95.60;;;;;;5048049;28;20489;-75
2021/06/09 02:55:09;;;;;;;35.73;33.03;;;16.90;95.70;;;;;;5052348;28;20524;-75
2021/06/09 02:57:40;;;;;;;36.20;33.57;;;16.90;95.90;;;;;;5051966;28;20864;-75
2021/06/09 03:00:10;;;;;;;37.90;34.80;;;17.00;95.80;;;;;;5054287;28;20498;-75
2021/06/09 03:02:45;;;;;;;38.00;34.87;;;17.00;95.60;;;;;;5057785;28;20516;-75
2021/06/09 03:05:22;;;;;;;37.17;34.57;;;17.10;95.40;;;;;;5044373;28;20470;-75
2021/06/09 03:07:58;;;;;;;38.57;35.57;;;17.10;95.40;;;;;;5043071;28;20454;-75
2021/06/09 03:10:38;;;;;;;38.50;35.60;;;17.10;95.40;;;;;;5052264;28;20471;-75
2021/06/09 03:13:11;;;;;;;36.87;34.20;;;17.10;95.40;;;;;;5053713;28;20780;-75
2021/06/09 03:15:42;;;;;;;37.23;34.53;;;17.00;95.30;;;;;;5049930;28;20949;-75
2021/06/09 03:18:15;;;;;;;35.57;32.87;;;17.00;95.40;;;;;;5056535;28;20479;-75
2021/06/09 03:20:51;;;;;;;36.37;33.57;;;17.00;95.30;;;;;;5052381;28;20509;-75
2021/06/09 03:23:28;;;;;;;36.57;33.90;;;17.00;95.40;;;;;;5055186;28;20472;-75
2021/06/09 03:26:00;;;;;;;38.23;35.13;;;16.90;95.60;;;;;;5052200;28;20457;-75
2021/06/09 03:28:34;;;;;;;36.07;33.30;;;16.90;95.60;;;;;;5054329;28;20957;-75
2021/06/09 03:31:06;;;;;;;35.27;32.67;;;16.90;95.70;;;;;;5051252;28;20458;-75
2021/06/09 03:33:38;;;;;;;37.17;34.43;;;17.00;95.60;;;;;;5047117;28;20515;-75
2021/06/09 03:36:11;;;;;;;39.50;36.40;;;17.00;95.40;;;;;;5058106;28;20472;-75
2021/06/09 03:38:44;;;;;;;36.90;34.20;;;17.00;95.30;;;;;;5053123;28;20486;-75
2021/06/09 03:41:14;;;;;;;36.90;33.97;;;17.00;95.30;;;;;;5051862;28;20477;-75
2021/06/09 03:43:44;;;;;;;36.90;34.20;;;17.00;95.30;;;;;;5050818;28;20487;-75
2021/06/09 03:46:11;;;;;;;36.10;33.30;;;17.00;95.20;;;;;;5050813;28;20466;-75
2021/06/09 03:48:41;;;;;;;35.90;33.27;;;17.10;95.00;;;;;;5048863;28;20674;-75
2021/06/09 03:51:11;;;;;;;36.63;33.63;;;17.20;94.90;;;;;;5050343;28;21011;-75
2021/06/09 03:53:39;;;;;;;36.33;33.70;;;17.20;94.80;;;;;;5054324;28;20830;-75
2021/06/09 03:56:06;;;;;;;35.37;32.73;;;17.20;94.80;;;;;;5049852;28;20465;-75
2021/06/09 03:58:34;;;;;;;36.73;34.03;;;17.20;94.70;;;;;;5055565;28;20489;-75
2021/06/09 04:01:01;;;;;;;36.80;34.07;;;17.20;95.00;;;;;;5049060;28;20466;-75
2021/06/09 04:03:28;;;;;;;37.33;34.50;;;17.20;94.70;;;;;;5052271;28;20584;-75
2021/06/09 04:05:57;;;;;;;37.10;34.50;;;17.10;94.70;;;;;;5049665;28;20467;-75
2021/06/09 04:08:25;;;;;;;36.33;33.77;;;17.20;94.90;;;;;;5046325;28;20459;-74
2021/06/09 04:10:54;;;;;;;35.90;33.20;;;17.30;94.50;;;;;;5051779;28;20456;-75
2021/06/09 04:13:21;;;;;;;37.20;34.43;;;17.30;94.10;;;;;;5052763;28;20525;-74
2021/06/09 04:15:50;;;;;;;40.13;37.23;;;17.30;94.30;;;;;;5048098;28;21266;-75
2021/06/09 04:18:17;;;;;;;39.57;36.43;;;17.30;94.30;;;;;;5050859;28;20477;-75
2021/06/09 04:20:47;;;;;;;36.13;33.60;;;17.40;94.20;;;;;;5045749;28;20549;-75
2021/06/09 04:23:14;;;;;;;37.07;34.37;;;17.50;93.90;;;;;;5044012;28;20903;-75
2021/06/09 04:25:42;;;;;;;36.53;34.03;;;17.50;93.90;;;;;;5058238;28;20546;-75
2021/06/09 04:28:10;;;;;;;34.70;32.20;;;17.60;93.70;;;;;;5054698;28;20468;-75
2021/06/09 04:30:37;;;;;;;36.30;33.80;;;17.70;93.10;;;;;;5051426;28;20454;-76
2021/06/09 04:33:07;;;;;;;36.00;33.50;;;17.60;93.30;;;;;;5052831;28;21111;-76
2021/06/09 04:35:38;;;;;;;34.87;32.13;;;17.60;93.60;;;;;;5052757;28;20856;-77
2021/06/09 04:38:05;;;;;;;35.10;32.50;;;17.70;93.40;;;;;;5046833;28;20476;-76
2021/06/09 04:40:32;;;;;;;39.23;36.33;;;17.70;93.20;;;;;;5055226;28;20465;-74
2021/06/09 04:43:00;;;;;;;38.03;35.13;;;17.80;93.10;;;;;;5051550;28;20539;-75
2021/06/09 04:45:29;;;;;;;35.90;33.33;;;17.90;93.00;;;;;;5053011;28;20934;-75
2021/06/09 04:47:55;;;;;;;39.15;36.25;;;18.10;92.10;;;;;;5054481;28;20510;-74
2021/06/09 04:50:26;;;;;;;37.03;34.27;;;18.20;91.40;;;;;;5050665;28;20462;-76
2021/06/09 04:52:53;;;;;;;37.97;35.20;;;18.20;91.30;;;;;;5053022;28;20572;-75
2021/06/09 04:55:21;;;;;;;36.40;33.80;;;18.30;91.30;;;;;;5053636;28;20465;-76
2021/06/09 04:57:48;;;;;;;37.87;34.93;;;18.30;90.50;;;;;;5054533;28;20488;-76
2021/06/09 05:00:17;;;;;;;37.87;34.50;;;18.20;90.60;;;;;;5058714;28;20825;-77
2021/06/09 05:02:47;;;;;;;35.80;33.20;;;18.20;90.80;;;;;;5065254;28;20577;-76
2021/06/09 05:05:15;;;;;;;37.07;34.37;;;18.20;90.80;;;;;;5062953;28;20464;-76
2021/06/09 05:07:41;;;;;;;39.30;36.57;;;18.30;90.80;;;;;;5062943;28;20503;-75
2021/06/09 05:10:09;;;;;;;36.13;33.70;;;18.30;90.60;;;;;;5048018;28;20506;-76
2021/06/09 05:12:41;;;;;;;36.80;34.30;;;18.40;90.30;;;;;;5053311;28;20482;-79
2021/06/09 05:15:12;;;;;;;35.60;33.17;;;18.40;90.30;;;;;;5064293;28;20453;-77
2021/06/09 05:17:43;;;;;;;36.77;34.17;;;18.40;90.60;;;;;;5054653;28;20469;-79
2021/06/09 05:20:15;;;;;;;34.63;32.03;;;18.60;90.60;;;;;;5059300;28;20459;-76
2021/06/09 05:22:44;;;;;;;36.60;34.00;;;18.60;90.40;;;;;;5053278;28;20481;-75
2021/06/09 05:25:13;;;;;;;38.07;35.47;;;18.70;90.40;;;;;;5049110;28;20550;-75
2021/06/09 05:27:42;;;;;;;39.43;36.40;;;18.80;89.50;;;;;;5055524;28;20451;-76
2021/06/09 05:30:10;;;;;;;38.85;35.95;;;19.00;89.00;;;;;;5060816;28;20558;-75
2021/06/09 05:32:37;;;;;;;41.77;38.73;;;19.20;88.90;;;;;;5064482;28;20816;-75
2021/06/09 05:35:07;;;;;;;37.57;34.67;;;19.20;88.50;;;;;;5050755;28;20838;-76
2021/06/09 05:37:35;;;;;;;41.17;37.90;;;19.30;88.20;;;;;;5053308;28;20507;-75
2021/06/09 05:40:07;;;;;;;37.67;35.20;;;19.30;88.00;;;;;;5054588;28;20460;-76
2021/06/09 05:42:34;;;;;;;37.40;34.90;;;19.50;87.80;;;;;;5064678;28;20477;-75
2021/06/09 05:45:00;;;;;;;38.67;35.97;;;19.60;87.30;;;;;;5065202;28;20474;-76
2021/06/09 05:47:27;;;;;;;39.97;37.30;;;19.80;86.80;;;;;;5046605;28;21248;-76
2021/06/09 05:50:12;;;;;;;39.67;36.97;;;20.00;86.20;;;;;;5046023;28;20453;-76
2021/06/09 05:52:39;;;;;;;40.57;37.97;;;20.20;85.60;;;;;;5047265;28;20515;-76
2021/06/09 05:55:13;;;;;;;41.07;38.13;;;20.10;85.50;;;;;;5054649;28;20454;-76
2021/06/09 05:57:39;;;;;;;42.23;39.43;;;20.20;85.40;;;;;;5045276;28;21356;-76
2021/06/09 06:00:07;;;;;;;42.37;39.40;;;20.40;85.20;;;;;;5046625;28;20466;-76
2021/06/09 06:02:36;;;;;;;41.57;38.60;;;20.70;83.90;;;;;;5055682;28;20517;-76
2021/06/09 06:05:02;;;;;;;41.13;38.43;;;20.80;83.40;;;;;;5058703;28;20494;-76
2021/06/09 06:07:30;;;;;;;42.00;39.10;;;21.00;82.70;;;;;;5045349;28;20493;-76
2021/06/09 06:09:58;;;;;;;41.90;39.13;;;21.20;81.40;;;;;;5045991;28;20563;-76
2021/06/09 06:12:25;;;;;;;40.70;38.10;;;21.20;80.90;;;;;;5050342;28;20566;-76
2021/06/09 06:14:52;;;;;;;43.03;40.03;;;21.20;81.00;;;;;;5045647;28;20459;-76
2021/06/09 06:17:19;;;;;;;43.53;40.53;;;21.10;81.40;;;;;;5046203;28;20479;-77
2021/06/09 06:19:49;;;;;;;43.87;40.80;;;21.20;81.00;;;;;;5051747;28;20454;-77
2021/06/09 06:22:15;;;;;;;43.33;40.43;;;21.60;79.80;;;;;;5052992;28;20760;-77
2021/06/09 06:24:45;;;;;;;45.30;42.30;;;21.70;78.80;;;;;;5061144;28;20469;-76
2021/06/09 06:27:13;;;;;;;44.80;41.70;;;21.90;78.20;;;;;;5046476;28;20459;-76
2021/06/09 06:29:40;;;;;;;47.07;43.80;;;21.80;78.60;;;;;;5062667;28;20932;-76
2021/06/09 06:32:08;;;;;;;46.60;43.47;;;22.00;78.60;;;;;;5054575;28;20469;-76
2021/06/09 06:34:38;;;;;;;44.20;41.40;;;22.00;77.60;;;;;;5064868;28;20474;-77
2021/06/09 06:37:05;;;;;;;40.37;37.83;;;22.10;77.10;;;;;;5048226;28;20462;-76
2021/06/09 06:39:36;;;;;;;45.37;42.20;;;22.10;77.00;;;;;;5045530;28;20956;-76
2021/06/09 06:42:05;;;;;;;42.10;39.30;;;22.20;76.40;;;;;;5046836;28;20550;-75
2021/06/09 06:44:34;;;;;;;43.40;40.57;;;22.10;76.90;;;;;;5050082;28;21221;-75
2021/06/09 06:47:01;;;;;;;41.53;38.87;;;22.30;76.50;;;;;;5045424;28;21222;-76
2021/06/09 06:49:28;;;;;;;47.13;43.47;;;22.10;76.30;;;;;;5058307;28;20468;-75
2021/06/09 06:51:56;;;;;;;61.17;46.53;;;22.00;77.30;;;;;;5049781;28;20964;-75
2021/06/09 06:54:24;;;;;;;51.03;43.70;;;22.10;77.00;;;;;;5048266;28;20478;-75
2021/06/09 06:56:51;;;;;;;46.20;41.60;;;22.00;77.00;;;;;;5059210;28;20453;-75
2021/06/09 06:59:21;;;;;;;43.30;39.83;;;21.90;77.70;;;;;;5052565;28;20453;-76
2021/06/09 07:01:48;;;;;;;45.57;42.20;;;22.30;76.90;;;;;;5047019;28;20609;-75
2021/06/09 07:04:17;;;;;;;43.23;40.23;;;22.30;76.30;;;;;;5050373;28;20600;-76
2021/06/09 07:06:44;;;;;;;48.17;44.87;;;22.10;76.90;;;;;;5051107;28;20490;-74
2021/06/09 07:09:12;;;;;;;42.50;39.37;;;22.10;76.70;;;;;;5045804;28;20459;-74
2021/06/09 07:11:44;;;;;;;44.77;41.40;;;22.10;76.90;;;;;;5058395;28;20461;-77
2021/06/09 07:14:11;;;;;;;42.50;39.60;;;21.90;77.30;;;;;;5065939;28;20493;-73
2021/06/09 07:16:45;;;;;;;44.70;41.70;;;21.90;77.10;;;;;;5055327;28;20943;-73
2021/06/09 07:19:12;;;;;;;44.10;40.90;;;21.90;77.60;;;;;;5054277;28;20474;-73
2021/06/09 07:21:39;;;;;;;44.37;41.37;;;21.90;77.70;;;;;;5052455;28;20469;-73
2021/06/09 07:24:06;;;;;;;41.60;38.83;;;21.90;77.50;;;;;;5061846;28;21312;-75
2021/06/09 07:26:36;;;;;;;46.60;43.43;;;22.00;76.90;;;;;;5045961;28;20469;-75
2021/06/09 07:29:05;;;;;;;44.10;41.10;;;22.00;76.50;;;;;;5045377;28;20462;-74
2021/06/09 07:31:35;;;;;;;42.77;39.93;;;22.10;76.80;;;;;;5046814;28;20546;-75
2021/06/09 07:34:05;;;;;;;42.17;39.43;;;22.20;76.80;;;;;;5061969;28;20485;-75
2021/06/09 07:36:36;;;;;;;42.30;39.40;;;22.40;76.60;;;;;;5060842;28;20991;-75
2021/06/09 07:39:08;;;;;;;45.57;42.47;;;22.60;76.00;;;;;;5064690;28;20846;-74
2021/06/09 07:41:37;;;;;;;44.37;41.37;;;22.70;75.50;;;;;;5052547;28;20609;-74
2021/06/09 07:44:06;;;;;;;43.40;40.60;;;22.70;75.10;;;;;;5057735;28;20518;-75
2021/06/09 07:46:33;;;;;;;45.80;42.50;;;22.90;74.80;;;;;;5055708;28;21216;-76
2021/06/09 07:49:05;;;;;;;45.10;42.10;;;22.90;74.40;;;;;;5046284;28;20447;-75
2021/06/09 07:51:32;;;;;;;48.23;45.23;;;22.70;75.30;;;;;;5063775;28;20481;-73
2021/06/09 07:54:01;;;;;;;44.10;41.10;;;22.90;75.30;;;;;;5064657;28;21312;-74
2021/06/09 07:56:35;;;;;;;43.50;40.50;;;23.10;75.20;;;;;;5062301;28;20537;-74
2021/06/09 07:59:03;;;;;;;46.73;43.63;;;23.50;73.80;;;;;;5064359;28;20486;-75
2021/06/09 08:01:30;;;;;;;48.60;45.43;;;23.80;73.10;;;;;;5061632;28;20491;-77
2021/06/09 08:04:01;;;;;;;47.73;43.90;;;24.00;72.60;;;;;;5047440;28;20866;-76
2021/06/09 08:06:29;;;;;;;49.00;45.70;;;24.10;72.20;;;;;;5059129;28;20469;-77
2021/06/09 08:08:56;;;;;;;48.33;45.00;;;24.20;72.10;;;;;;5058655;28;20548;-76
2021/06/09 08:11:22;;;;;;;46.80;43.40;;;24.00;72.20;;;;;;5058880;28;21295;-75
2021/06/09 08:13:50;;;;;;;48.43;44.93;;;24.20;72.10;;;;;;5066109;28;20477;-77
2021/06/09 08:16:19;;;;;;;49.67;46.03;;;24.20;71.80;;;;;;5052168;28;20542;-77
2021/06/09 08:18:47;;;;;;;50.80;46.90;;;24.20;72.00;;;;;;5044052;28;20479;-76
2021/06/09 08:23:53;;;;;;;51.23;47.53;;;24.40;70.80;;;;;;5163742;22;20490;-75
2021/06/09 08:26:23;;;;;;;50.60;46.90;;;24.40;71.00;;;;;;5083818;28;20452;-75
2021/06/09 08:28:51;;;;;;;52.60;48.50;;;24.40;71.50;;;;;;5076578;28;20532;-75
2021/06/09 08:31:23;;;;;;;53.40;49.40;;;24.50;71.00;;;;;;5070400;28;21226;-75
2021/06/09 08:33:51;;;;;;;52.60;49.00;;;24.40;71.30;;;;;;5079639;28;21025;-76
2021/06/09 08:36:18;;;;;;;51.83;48.13;;;24.50;71.20;;;;;;5077194;28;20453;-75
2021/06/09 08:38:46;;;;;;;53.23;49.03;;;24.80;70.80;;;;;;5081497;28;20476;-76
2021/06/09 08:41:14;;;;;;;49.73;46.00;;;24.70;70.60;;;;;;5083444;28;20452;-76
2021/06/09 08:43:43;;;;;;;51.13;47.47;;;24.90;70.50;;;;;;5085640;28;20473;-76
2021/06/09 08:46:11;;;;;;;53.70;49.80;;;25.00;70.20;;;;;;5087481;28;20499;-77
2021/06/09 08:48:39;;;;;;;51.07;47.47;;;25.10;70.00;;;;;;5080722;28;20450;-76
2021/06/09 08:51:08;;;;;;;51.87;48.30;;;25.20;69.10;;;;;;5066761;28;20486;-76
2021/06/09 08:53:36;;;;;;;50.13;46.73;;;25.10;69.40;;;;;;5080028;28;20568;-75
2021/06/09 08:56:03;;;;;;;50.80;47.17;;;25.10;69.30;;;;;;5086371;28;20548;-75
2021/06/09 08:58:31;;;;;;;52.23;48.37;;;25.10;69.70;;;;;;5077646;28;20478;-76
2021/06/09 09:00:58;;;;;;;53.93;50.13;;;25.20;69.30;;;;;;5074769;28;20577;-77
2021/06/09 09:03:25;;;;;;;52.57;48.97;;;25.30;68.50;;;;;;5078139;28;20556;-76
2021/06/09 09:05:53;;;;;;;51.00;47.50;;;25.10;69.30;;;;;;5086283;28;20449;-77
2021/06/09 09:08:20;;;;;;;52.80;49.00;;;24.90;69.80;;;;;;5078469;28;20454;-77
2021/06/09 09:10:49;;;;;;;51.37;47.80;;;25.00;69.90;;;;;;5067386;28;20457;-77
2021/06/09 09:13:16;;;;;;;52.77;49.17;;;25.10;70.00;;;;;;5078280;28;21137;-76
2021/06/09 09:15:44;;;;;;;51.97;48.23;;;25.20;69.30;;;;;;5085864;28;20472;-76
2021/06/09 09:18:10;;;;;;;54.50;50.50;;;25.30;69.20;;;;;;5079995;28;20477;-76
2021/06/09 09:20:40;;;;;;;53.27;49.47;;;25.50;68.80;;;;;;5077900;28;20483;-77
2021/06/09 09:23:18;;;;;;;56.70;52.80;;;25.70;67.70;;;;;;5080000;28;20991;-77
2021/06/09 09:25:45;;;;;;;54.33;50.47;;;25.60;68.10;;;;;;5085604;28;20456;-76
2021/06/09 09:28:23;;;;;;;53.57;49.87;;;25.70;68.00;;;;;;5079690;28;20446;-77
2021/06/09 09:30:51;;;;;;;56.00;52.10;;;25.90;67.20;;;;;;5075110;28;21242;-77
2021/06/09 09:33:19;;;;;;;52.87;48.83;;;26.10;67.00;;;;;;5081892;28;20477;-77
2021/06/09 09:35:47;;;;;;;54.47;50.50;;;26.10;66.90;;;;;;5085114;28;20457;-77
2021/06/09 09:38:20;;;;;;;53.13;49.07;;;26.20;66.90;;;;;;5085205;28;20481;-77
2021/06/09 09:41:05;;;;;;;56.57;52.57;;;26.30;66.40;;;;;;5086867;28;20548;-77
2021/06/09 09:43:42;;;;;;;58.13;54.00;;;26.30;65.80;;;;;;5080162;28;20980;-77
2021/06/09 09:46:12;;;;;;;55.00;51.00;;;26.20;65.80;;;;;;5086385;28;20452;-77
2021/06/09 09:48:41;;;;;;;57.40;53.30;;;25.80;66.40;;;;;;5074713;28;20458;-75
2021/06/09 09:51:08;;;;;;;56.17;51.50;;;25.70;66.40;;;;;;5081513;28;20465;-76
2021/06/09 09:53:35;;;;;;;54.77;50.63;;;25.40;67.80;;;;;;5081695;28;20537;-76
2021/06/09 09:56:07;;;;;;;60.53;54.83;;;25.50;67.80;;;;;;5083872;28;20453;-76
2021/06/09 09:58:35;;;;;;;62.80;53.60;;;25.70;67.10;;;;;;5076304;28;21386;-76
2021/06/09 10:01:18;;;;;;;56.97;53.03;;;25.80;67.20;;;;;;5085631;28;20528;-77
2021/06/09 10:03:47;;;;;;;56.83;52.20;;;26.20;65.50;;;;;;5070631;28;20480;-76
2021/06/09 10:06:31;;;;;;;57.67;53.57;;;26.00;66.60;;;;;;5085100;28;20522;-76
2021/06/09 10:09:10;;;;;;;58.27;54.13;;;25.90;66.10;;;;;;5072579;28;20812;-76
2021/06/09 10:11:40;;;;;;;58.10;54.00;;;26.00;66.30;;;;;;5078433;28;20449;-76
2021/06/09 10:14:16;;;;;;;55.53;51.23;;;26.00;66.20;;;;;;5068921;28;21223;-76
2021/06/09 10:16:45;;;;;;;54.57;51.00;;;26.00;66.30;;;;;;5065022;28;20454;-75
2021/06/09 10:19:13;;;;;;;57.60;53.70;;;26.10;66.20;;;;;;5073857;28;20560;-76
2021/06/09 10:21:48;;;;;;;52.17;48.17;;;26.20;66.30;;;;;;5077014;28;21081;-76
2021/06/09 10:24:15;;;;;;;53.43;49.60;;;26.20;66.90;;;;;;5076880;28;20594;-76
2021/06/09 10:26:45;;;;;;;54.70;50.90;;;26.60;66.20;;;;;;5086752;28;20449;-78
2021/06/09 10:29:14;;;;;;;56.83;52.80;;;26.90;63.50;;;;;;5084972;28;20453;-77
2021/06/09 10:31:49;;;;;;;55.87;51.87;;;26.80;63.70;;;;;;5085612;28;20457;-78
2021/06/09 10:34:15;;;;;;;54.97;50.93;;;26.70;63.80;;;;;;5083878;28;21431;-77
2021/06/09 10:36:45;;;;;;;54.93;51.23;;;26.60;64.50;;;;;;5086825;28;20461;-77
2021/06/09 10:39:13;;;;;;;52.10;48.30;;;26.90;64.30;;;;;;5087154;28;20519;-78
2021/06/09 10:41:41;;;;;;;51.43;47.93;;;27.20;63.80;;;;;;5087402;28;20449;-77
2021/06/09 10:44:09;;;;;;;51.43;47.73;;;27.60;62.50;;;;;;5086165;28;20509;-76
2021/06/09 10:46:39;;;;;;;58.33;54.43;;;27.80;61.60;;;;;;5079018;28;20532;-76
2021/06/09 10:49:07;;;;;;;54.77;51.07;;;28.10;61.10;;;;;;5076924;28;20457;-77
2021/06/09 10:51:34;;;;;;;56.70;53.10;;;28.10;60.80;;;;;;5077336;28;20493;-74
2021/06/09 10:54:05;;;;;;;53.57;49.93;;;28.10;61.30;;;;;;5075215;28;20497;-76
2021/06/09 10:56:32;;;;;;;54.10;50.07;;;28.10;61.40;;;;;;5063794;28;20457;-76
2021/06/09 10:58:59;;;;;;;53.50;49.83;;;28.20;60.90;;;;;;5065034;28;20477;-77
2021/06/09 11:01:28;;;;;;;53.30;49.50;;;28.00;59.60;;;;;;5066181;28;20494;-74
2021/06/09 11:03:57;;;;;;;49.20;45.67;;;27.80;60.60;;;;;;5071005;28;20583;-74
2021/06/09 11:06:46;;;;;;;48.90;45.57;;;27.80;60.40;;;;;;5083038;28;20518;-75
2021/06/09 11:09:23;;;;;;;49.07;45.30;;;27.70;58.90;;;;;;5083268;28;20459;-74
2021/06/09 11:12:21;;;;;;;51.00;47.57;;;27.80;58.00;;;;;;5084480;28;20453;-74
2021/06/09 11:14:50;;;;;;;52.67;48.83;;;27.80;57.80;;;;;;5079349;28;20472;-74
2021/06/09 11:17:37;;;;;;;52.37;48.70;;;27.50;59.10;;;;;;5082265;28;20483;-74
2021/06/09 11:20:22;;;;;;;49.93;46.53;;;27.60;59.40;;;;;;5078500;28;20450;-74
2021/06/09 11:22:51;;;;;;;45.77;42.57;;;27.60;59.30;;;;;;5082533;28;20492;-74
2021/06/09 11:25:21;;;;;;;48.53;45.20;;;27.40;57.90;;;;;;5083893;28;21305;-75
2021/06/09 11:27:54;;;;;;;47.23;43.93;;;27.30;57.90;;;;;;5079806;28;20458;-78
2021/06/09 11:30:57;;;;;;;45.87;42.77;;;27.50;57.20;;;;;;5066528;28;20458;-77
2021/06/09 11:33:42;;;;;;;51.00;47.70;;;27.90;56.20;;;;;;5071755;28;20504;-77
2021/06/09 11:36:27;;;;;;;48.40;45.20;;;27.90;56.40;;;;;;5065350;28;20506;-77
2021/06/09 11:38:57;;;;;;;49.30;46.00;;;27.90;56.40;;;;;;5066459;28;20477;-77
2021/06/09 11:41:26;;;;;;;45.03;42.03;;;28.20;55.30;;;;;;5064685;28;20481;-76
2021/06/09 11:43:55;;;;;;;42.33;39.43;;;28.10;54.10;;;;;;5076596;28;20501;-77
2021/06/09 11:46:24;;;;;;;43.83;41.13;;;28.10;54.80;;;;;;5080857;28;20999;-76
2021/06/09 11:48:55;;;;;;;42.53;39.83;;;28.20;53.60;;;;;;5068517;28;21112;-77
2021/06/09 11:51:34;;;;;;;42.13;39.23;;;28.50;53.20;;;;;;5082841;28;20467;-76
2021/06/09 11:54:06;;;;;;;45.63;42.50;;;29.00;53.90;;;;;;5069848;28;20945;-79
2021/06/09 11:56:39;;;;;;;44.83;41.83;;;29.20;53.20;;;;;;5075134;28;20456;-78
2021/06/09 11:59:08;;;;;;;50.90;47.63;;;29.30;52.70;;;;;;5077163;28;21067;-78
2021/06/09 12:01:37;;;;;;;45.00;42.10;;;29.10;53.10;;;;;;5079432;28;20453;-78
2021/06/09 12:04:16;;;;;;;43.30;40.47;;;29.30;52.70;;;;;;5072262;28;20686;-76
2021/06/09 12:06:46;;;;;;;46.70;43.73;;;29.50;52.20;;;;;;5080855;28;20473;-76
2021/06/09 12:09:14;;;;;;;47.97;44.87;;;29.10;54.00;;;;;;5071756;28;21075;-75
2021/06/09 12:11:43;;;;;;;48.13;45.03;;;28.90;57.10;;;;;;5063900;28;20469;-75
2021/06/09 12:14:34;;;;;;;48.47;45.07;;;28.10;59.60;;;;;;5067733;28;20478;-77
2021/06/09 12:17:22;;;;;;;49.53;46.23;;;27.70;59.30;;;;;;5062740;28;20475;-78
2021/06/09 12:19:52;;;;;;;49.70;46.40;;;27.30;61.00;;;;;;5073846;28;20478;-77
2021/06/09 12:22:20;;;;;;;48.00;44.80;;;27.20;61.60;;;;;;5069004;28;21038;-77
2021/06/09 12:25:01;;;;;;;51.30;47.90;;;27.20;62.10;;;;;;5083357;28;20457;-76
2021/06/09 12:27:28;;;;;;;48.10;44.73;;;27.20;61.50;;;;;;5082512;28;20955;-77
2021/06/09 12:29:54;;;;;;;50.33;46.90;;;27.40;61.00;;;;;;5075612;28;20461;-77
2021/06/09 12:32:24;;;;;;;49.03;45.83;;;27.50;60.30;;;;;;5082524;28;20485;-78
2021/06/09 12:34:57;;;;;;;48.87;45.50;;;27.60;60.00;;;;;;5075375;28;20449;-78
2021/06/09 12:37:24;;;;;;;49.67;46.37;;;27.40;59.10;;;;;;5079606;28;20449;-76
2021/06/09 12:40:01;;;;;;;47.13;44.03;;;27.30;58.30;;;;;;5088235;28;20528;-77
2021/06/09 12:42:29;;;;;;;45.30;42.33;;;27.50;58.80;;;;;;5082241;28;20536;-77